Time;durP1;ratioP1;P1;durP2;ratioP2;P2;SDS_P1;SDS_P2;PMS_P1;PMS_P2;Temp;Humidity;BMP_temperature;BMP_pressure;BME280_temperature;BME280_humidity;BME280_pressure;Samples;Min_cycle;Max_cycle;Signal;HPM_P1;HPM_P2
2021/03/04 00:00:36;;;;;;;7.07;1.45;;;29.60;67.90;;;;;;4882375;29;20401;-83
2021/03/04 00:03:08;;;;;;;7.95;1.73;;;29.70;66.80;;;;;;4882149;29;20422;-82
2021/03/04 00:05:36;;;;;;;6.35;1.23;;;29.50;69.00;;;;;;4886457;29;20399;-83
2021/03/04 00:08:04;;;;;;;3.58;1.10;;;29.80;66.20;;;;;;4888666;29;20419;-82
2021/03/04 00:10:31;;;;;;;7.05;1.33;;;30.20;69.70;;;;;;4880247;29;20792;-82
2021/03/04 00:12:59;;;;;;;6.03;1.40;;;30.70;64.90;;;;;;4876192;29;20407;-81
2021/03/04 00:15:29;;;;;;;3.78;1.23;;;30.90;67.00;;;;;;4876517;29;20395;-83
2021/03/04 00:17:56;;;;;;;5.28;1.00;;;31.00;65.20;;;;;;4875250;29;20419;-83
2021/03/04 00:20:27;;;;;;;6.38;1.20;;;31.40;64.70;;;;;;4886451;29;20477;-82
2021/03/04 00:22:54;;;;;;;7.95;1.70;;;31.30;66.10;;;;;;4875752;29;20399;-83
2021/03/04 00:25:24;;;;;;;2.92;0.98;;;31.20;61.10;;;;;;4875733;29;20387;-82
2021/03/04 00:27:51;;;;;;;5.45;1.25;;;30.80;63.00;;;;;;4875397;29;20816;-83
2021/03/04 00:30:20;;;;;;;4.35;1.08;;;30.60;66.90;;;;;;4875440;29;20415;-82
2021/03/04 00:32:47;;;;;;;6.85;1.15;;;30.60;62.70;;;;;;4875324;29;20462;-82
2021/03/04 00:35:15;;;;;;;4.78;1.02;;;29.90;62.90;;;;;;4875783;29;20419;-82
2021/03/04 00:37:42;;;;;;;7.50;1.40;;;29.80;66.20;;;;;;4875187;29;20568;-81
2021/03/04 00:40:12;;;;;;;6.68;1.33;;;30.20;63.70;;;;;;4864310;29;20407;-82
2021/03/04 00:42:39;;;;;;;6.57;1.48;;;30.00;64.90;;;;;;4875399;29;20891;-84
2021/03/04 00:45:21;;;;;;;5.05;1.10;;;30.20;64.10;;;;;;4875172;29;20387;-83
2021/03/04 00:47:48;;;;;;;8.23;1.30;;;29.50;67.40;;;;;;4874644;29;20407;-83
2021/03/04 00:50:19;;;;;;;3.65;1.00;;;29.50;62.60;;;;;;4871490;29;20398;-83
2021/03/04 00:52:46;;;;;;;3.13;0.90;;;29.00;62.30;;;;;;4874481;29;20402;-83
2021/03/04 00:55:13;;;;;;;3.77;1.00;;;29.10;66.30;;;;;;4875331;29;20463;-84
2021/03/04 00:57:40;;;;;;;5.30;1.35;;;28.40;66.70;;;;;;4874591;29;20494;-82
2021/03/04 01:00:08;;;;;;;3.53;1.00;;;28.40;65.70;;;;;;4874533;29;20409;-83
2021/03/04 01:02:36;;;;;;;2.67;1.00;;;28.30;66.80;;;;;;4874980;29;20415;-83
2021/03/04 01:05:05;;;;;;;2.60;1.15;;;28.60;67.20;;;;;;4875594;29;20540;-82
2021/03/04 01:07:32;;;;;;;3.90;0.80;;;28.60;65.30;;;;;;4874312;29;20486;-84
2021/03/04 01:09:59;;;;;;;4.53;1.50;;;28.80;67.20;;;;;;4876170;29;22134;-84
2021/03/04 01:12:26;;;;;;;5.40;1.25;;;29.00;68.00;;;;;;4874945;29;20498;-83
2021/03/04 01:14:53;;;;;;;7.20;1.33;;;29.40;71.10;;;;;;4874327;29;20762;-84
2021/03/04 01:17:21;;;;;;;4.32;1.27;;;29.10;63.60;;;;;;4874414;29;20886;-85
2021/03/04 01:19:48;;;;;;;6.50;1.35;;;28.70;64.90;;;;;;4874147;29;20442;-82
2021/03/04 01:22:15;;;;;;;5.20;1.20;;;28.00;65.60;;;;;;4872795;29;20395;-86
2021/03/04 01:24:42;;;;;;;4.45;1.50;;;27.10;65.80;;;;;;4875086;29;20466;-83
2021/03/04 01:27:11;;;;;;;4.25;1.25;;;26.20;67.50;;;;;;4862731;29;20416;-82
2021/03/04 01:29:38;;;;;;;5.68;1.25;;;25.60;72.50;;;;;;4881176;29;20411;-86
2021/03/04 01:32:06;;;;;;;4.85;1.15;;;25.30;72.60;;;;;;4875375;29;20767;-85
2021/03/04 01:34:33;;;;;;;4.40;1.00;;;25.50;74.80;;;;;;4874600;29;20558;-84
2021/03/04 01:37:00;;;;;;;5.35;1.20;;;25.50;73.90;;;;;;4874391;29;20889;-85
2021/03/04 01:39:27;;;;;;;6.05;1.60;;;25.30;71.80;;;;;;4874358;29;20483;-85
2021/03/04 01:41:54;;;;;;;5.05;1.40;;;25.40;76.10;;;;;;4874741;29;20434;-86
2021/03/04 01:44:20;;;;;;;7.05;1.38;;;25.20;72.90;;;;;;4874296;29;20937;-85
2021/03/04 01:46:47;;;;;;;5.45;1.25;;;25.20;70.00;;;;;;4874434;29;20398;-86
2021/03/04 01:49:15;;;;;;;4.07;1.20;;;25.20;75.50;;;;;;4874903;29;20414;-85
2021/03/04 01:51:42;;;;;;;5.90;1.33;;;25.20;75.60;;;;;;4857246;29;20494;-86
2021/03/04 01:54:09;;;;;;;8.48;1.75;;;25.20;76.00;;;;;;4874663;29;20502;-84
2021/03/04 01:56:36;;;;;;;4.35;1.40;;;25.10;71.50;;;;;;4874498;29;20486;-85
2021/03/04 01:59:03;;;;;;;3.40;1.40;;;25.30;75.20;;;;;;4873947;29;20430;-87
2021/03/04 02:01:30;;;;;;;6.95;1.73;;;25.30;73.50;;;;;;4868940;29;20432;-85
2021/03/04 02:03:57;;;;;;;4.63;1.90;;;25.20;70.70;;;;;;4876274;29;20877;-86
2021/03/04 02:06:32;;;;;;;4.43;1.40;;;25.00;71.30;;;;;;4878298;29;20406;-87
2021/03/04 02:09:03;;;;;;;6.63;1.90;;;25.00;74.80;;;;;;4878281;29;20399;-85
2021/03/04 02:12:07;;;;;;;5.30;1.83;;;25.20;71.70;;;;;;4877713;29;20799;-85
2021/03/04 02:14:56;;;;;;;5.50;1.70;;;25.20;77.70;;;;;;4871382;29;20752;-85
2021/03/04 02:17:27;;;;;;;3.80;1.55;;;25.30;75.60;;;;;;4874673;29;20406;-87
2021/03/04 02:20:05;;;;;;;4.53;2.05;;;25.20;72.50;;;;;;4876538;29;20899;-85
2021/03/04 02:22:55;;;;;;;4.38;1.38;;;25.00;73.00;;;;;;4875746;29;20391;-86
2021/03/04 02:25:59;;;;;;;5.65;1.50;;;25.10;73.90;;;;;;4877761;29;21280;-85
2021/03/04 02:28:29;;;;;;;4.60;1.67;;;25.20;73.70;;;;;;4874423;29;20387;-85
2021/03/04 02:31:04;;;;;;;6.00;1.63;;;25.30;74.40;;;;;;4871437;29;20465;-84
2021/03/04 02:33:32;;;;;;;4.45;1.60;;;25.50;70.60;;;;;;4876845;29;20731;-86
2021/03/04 02:36:00;;;;;;;3.97;1.40;;;25.40;69.40;;;;;;4873339;29;20415;-86
2021/03/04 02:38:28;;;;;;;5.55;1.70;;;25.20;70.50;;;;;;4865130;29;20414;-85
2021/03/04 02:40:58;;;;;;;3.83;1.43;;;25.10;69.70;;;;;;4876346;29;20573;-86
2021/03/04 02:43:26;;;;;;;7.03;1.87;;;24.90;71.20;;;;;;4877574;29;20486;-85
2021/03/04 02:45:55;;;;;;;7.60;1.60;;;25.00;71.20;;;;;;4876752;29;20478;-85
2021/03/04 02:48:23;;;;;;;3.58;1.40;;;25.10;70.80;;;;;;4877438;29;20426;-86
2021/03/04 02:50:52;;;;;;;6.07;1.75;;;25.30;70.90;;;;;;4877308;29;20423;-85
2021/03/04 02:53:21;;;;;;;3.22;1.40;;;25.60;75.00;;;;;;4878356;29;20406;-86
2021/03/04 02:55:49;;;;;;;4.68;1.67;;;25.70;70.70;;;;;;4880334;29;20887;-84
2021/03/04 02:58:18;;;;;;;4.32;1.10;;;25.60;68.80;;;;;;4878858;29;20431;-86
2021/03/04 03:00:47;;;;;;;4.88;1.75;;;25.40;71.20;;;;;;4877820;29;20894;-84
2021/03/04 03:03:16;;;;;;;5.00;1.70;;;25.20;71.80;;;;;;4877235;29;20471;-85
2021/03/04 03:05:46;;;;;;;5.97;1.70;;;25.20;71.80;;;;;;4877990;29;20564;-85
2021/03/04 03:08:17;;;;;;;4.18;1.77;;;25.20;69.50;;;;;;4876769;29;20399;-84
2021/03/04 03:10:49;;;;;;;4.75;1.63;;;25.40;69.40;;;;;;4876456;29;20414;-84
2021/03/04 03:13:18;;;;;;;4.40;1.45;;;25.50;72.60;;;;;;4877049;29;20406;-83
2021/03/04 03:15:45;;;;;;;3.38;1.50;;;25.60;73.50;;;;;;4876899;29;20401;-84
2021/03/04 03:18:13;;;;;;;7.28;1.83;;;25.70;70.20;;;;;;4874821;29;20941;-83
2021/03/04 03:20:40;;;;;;;6.07;1.50;;;25.80;69.60;;;;;;4876612;29;20395;-84
2021/03/04 03:23:07;;;;;;;3.27;1.60;;;25.90;69.80;;;;;;4876374;29;20464;-83
2021/03/04 03:25:34;;;;;;;4.07;1.40;;;25.90;71.00;;;;;;4876559;29;20940;-83
2021/03/04 03:28:01;;;;;;;4.38;1.30;;;26.00;69.30;;;;;;4875543;29;20403;-82
2021/03/04 03:30:30;;;;;;;5.68;1.70;;;26.10;69.00;;;;;;4876068;29;20430;-82
2021/03/04 03:33:04;;;;;;;4.43;1.80;;;26.10;67.10;;;;;;4875578;29;20581;-83
2021/03/04 03:35:32;;;;;;;3.97;1.40;;;26.00;69.10;;;;;;4876374;29;20454;-82
2021/03/04 03:38:02;;;;;;;5.28;2.00;;;25.90;67.60;;;;;;4876300;29;20403;-83
2021/03/04 03:40:31;;;;;;;4.13;1.70;;;25.80;69.40;;;;;;4875458;29;20502;-82
2021/03/04 03:43:00;;;;;;;4.90;1.70;;;26.00;68.20;;;;;;4876111;29;20474;-83
2021/03/04 03:45:47;;;;;;;3.55;1.80;;;26.20;68.20;;;;;;4875404;29;20414;-82
2021/03/04 03:48:16;;;;;;;4.22;1.70;;;26.20;71.10;;;;;;4876009;29;20434;-82
2021/03/04 03:50:51;;;;;;;5.53;1.52;;;26.10;66.10;;;;;;4875679;29;20406;-82
2021/03/04 03:53:19;;;;;;;5.13;1.63;;;26.10;67.10;;;;;;4875511;29;20391;-82
2021/03/04 03:55:50;;;;;;;4.70;1.40;;;26.00;66.90;;;;;;4876584;29;20415;-83
2021/03/04 03:58:19;;;;;;;4.10;1.80;;;26.10;67.60;;;;;;4875864;29;20423;-83
2021/03/04 04:00:46;;;;;;;4.80;1.70;;;26.20;68.20;;;;;;4875991;29;20459;-83
2021/03/04 04:03:13;;;;;;;5.57;1.90;;;26.10;65.20;;;;;;4875281;29;20431;-83
2021/03/04 04:05:42;;;;;;;5.15;1.50;;;26.20;68.70;;;;;;4875640;29;20399;-83
2021/03/04 04:08:09;;;;;;;7.32;1.80;;;26.10;67.20;;;;;;4874568;29;20418;-83
2021/03/04 04:10:37;;;;;;;5.45;1.73;;;26.30;65.70;;;;;;4875575;29;20397;-83
2021/03/04 04:13:04;;;;;;;4.45;1.70;;;26.30;66.20;;;;;;4875658;29;20550;-83
2021/03/04 04:15:31;;;;;;;2.75;1.50;;;26.30;67.40;;;;;;4875605;29;20379;-82
2021/03/04 04:18:01;;;;;;;4.18;1.65;;;26.30;68.40;;;;;;4875974;29;20999;-83
2021/03/04 04:20:29;;;;;;;5.40;1.77;;;26.20;65.10;;;;;;4875691;29;20455;-82
2021/03/04 04:22:57;;;;;;;3.72;1.55;;;26.10;66.80;;;;;;4875658;29;20506;-82
2021/03/04 04:25:26;;;;;;;3.85;1.52;;;26.00;65.80;;;;;;4875032;29;20399;-83
2021/03/04 04:27:54;;;;;;;9.18;1.60;;;26.00;67.60;;;;;;4874631;29;20981;-82
2021/03/04 04:30:25;;;;;;;6.88;1.88;;;26.20;66.80;;;;;;4874260;29;20890;-83
2021/03/04 04:32:53;;;;;;;3.73;1.60;;;26.10;66.50;;;;;;4874245;29;20773;-82
2021/03/04 04:35:20;;;;;;;3.60;1.50;;;26.20;67.70;;;;;;4885584;29;20478;-82
2021/03/04 04:37:47;;;;;;;3.83;1.50;;;26.20;65.80;;;;;;4875545;29;20448;-82
2021/03/04 04:40:15;;;;;;;6.40;1.70;;;26.30;66.70;;;;;;4875499;29;20390;-84
2021/03/04 04:42:41;;;;;;;6.03;1.80;;;26.30;65.40;;;;;;4874906;29;20510;-84
2021/03/04 04:45:09;;;;;;;6.70;1.90;;;26.20;63.50;;;;;;4874079;29;20494;-83
2021/03/04 04:47:36;;;;;;;3.03;1.40;;;26.20;65.30;;;;;;4874286;29;20504;-82
2021/03/04 04:50:04;;;;;;;4.80;1.63;;;26.20;65.10;;;;;;4874586;29;20447;-83
2021/03/04 04:52:31;;;;;;;5.30;1.85;;;26.30;66.70;;;;;;4861404;29;20400;-83
2021/03/04 04:54:58;;;;;;;5.38;1.75;;;26.40;67.50;;;;;;4873904;29;20418;-83
2021/03/04 04:57:25;;;;;;;5.03;2.00;;;26.40;67.00;;;;;;4874022;29;20421;-85
2021/03/04 04:59:52;;;;;;;4.20;1.77;;;26.50;66.90;;;;;;4874029;29;20411;-86
2021/03/04 05:02:19;;;;;;;5.53;1.90;;;26.50;66.40;;;;;;4874444;29;20437;-83
2021/03/04 05:04:46;;;;;;;3.28;1.55;;;26.60;63.70;;;;;;4857959;29;20407;-84
2021/03/04 05:07:13;;;;;;;6.80;1.55;;;26.60;64.60;;;;;;4876447;29;20394;-83
2021/03/04 05:09:40;;;;;;;2.53;1.38;;;26.60;65.40;;;;;;4856667;29;20392;-83
2021/03/04 05:12:07;;;;;;;4.07;1.50;;;26.50;66.30;;;;;;4874621;29;20506;-85
2021/03/04 05:14:34;;;;;;;6.18;1.50;;;26.30;65.70;;;;;;4874901;29;20446;-83
2021/03/04 05:17:01;;;;;;;4.45;1.70;;;26.30;66.00;;;;;;4875109;29;20490;-84
2021/03/04 05:19:28;;;;;;;2.50;1.35;;;26.20;63.80;;;;;;4875090;29;20740;-83
2021/03/04 05:21:55;;;;;;;5.25;1.67;;;26.20;65.30;;;;;;4871550;29;20421;-84
2021/03/04 05:24:22;;;;;;;4.88;1.45;;;26.20;66.00;;;;;;4874339;29;20435;-83
2021/03/04 05:26:49;;;;;;;2.67;1.30;;;26.20;65.30;;;;;;4874576;29;20430;-83
2021/03/04 05:29:16;;;;;;;4.18;1.30;;;26.20;64.60;;;;;;4874089;29;20854;-86
2021/03/04 05:31:43;;;;;;;2.72;1.20;;;26.00;66.80;;;;;;4874945;29;20478;-82
2021/03/04 05:34:10;;;;;;;2.63;1.20;;;26.10;65.50;;;;;;4873558;29;20417;-83
2021/03/04 05:36:37;;;;;;;5.25;1.40;;;26.10;65.40;;;;;;4873427;29;20517;-83
2021/03/04 05:39:04;;;;;;;4.20;1.63;;;26.10;66.30;;;;;;4876710;29;20423;-82
2021/03/04 05:41:33;;;;;;;3.85;1.27;;;26.20;65.30;;;;;;4878096;29;20406;-82
2021/03/04 05:44:00;;;;;;;4.18;1.60;;;26.20;65.90;;;;;;4878575;29;20391;-83
2021/03/04 05:46:28;;;;;;;4.57;1.30;;;26.20;65.00;;;;;;4887762;29;20392;-82
2021/03/04 05:48:57;;;;;;;5.90;1.40;;;26.20;66.40;;;;;;4880818;29;20423;-82
2021/03/04 05:51:27;;;;;;;2.35;1.30;;;26.10;63.00;;;;;;4878265;29;20478;-82
2021/03/04 05:53:58;;;;;;;6.45;1.65;;;26.10;64.20;;;;;;4876986;29;20403;-82
2021/03/04 05:56:26;;;;;;;3.40;1.40;;;26.00;65.10;;;;;;4878234;29;20950;-83
2021/03/04 05:58:53;;;;;;;3.47;1.67;;;26.20;66.50;;;;;;4881948;29;20468;-83
2021/03/04 06:01:20;;;;;;;4.20;1.63;;;26.20;66.20;;;;;;4877763;29;20514;-84
2021/03/04 06:03:47;;;;;;;4.65;1.45;;;26.30;64.50;;;;;;4877245;29;20465;-83
2021/03/04 06:06:16;;;;;;;4.55;1.40;;;26.30;65.00;;;;;;4881050;29;20506;-83
2021/03/04 06:08:43;;;;;;;2.92;1.60;;;26.30;66.10;;;;;;4874466;29;20471;-83
2021/03/04 06:11:10;;;;;;;5.35;1.83;;;26.30;64.50;;;;;;4876779;29;20795;-84
2021/03/04 06:13:37;;;;;;;3.50;1.40;;;26.20;65.50;;;;;;4878281;29;20411;-83
2021/03/04 06:16:04;;;;;;;4.88;1.40;;;26.10;64.70;;;;;;4884614;29;20503;-83
2021/03/04 06:18:44;;;;;;;3.50;1.33;;;26.10;64.10;;;;;;4886182;29;20545;-83
2021/03/04 06:21:23;;;;;;;4.28;1.65;;;26.00;63.70;;;;;;4874086;29;20411;-84
2021/03/04 06:23:51;;;;;;;3.22;1.58;;;26.00;63.50;;;;;;4866071;29;20933;-84
2021/03/04 06:26:35;;;;;;;3.13;1.20;;;26.10;64.50;;;;;;4877364;29;20474;-82
2021/03/04 06:29:13;;;;;;;2.75;1.23;;;26.10;63.70;;;;;;4877561;29;20742;-82
2021/03/04 06:31:40;;;;;;;3.92;1.50;;;26.00;64.10;;;;;;4877953;29;20524;-82
2021/03/04 06:34:21;;;;;;;1.95;1.20;;;26.00;64.40;;;;;;4877770;29;20395;-83
2021/03/04 06:37:06;;;;;;;2.88;1.27;;;26.00;64.20;;;;;;4877906;29;20399;-83
2021/03/04 06:39:45;;;;;;;4.10;1.33;;;25.90;64.70;;;;;;4872208;29;20475;-82
2021/03/04 06:42:13;;;;;;;3.63;1.45;;;25.80;64.80;;;;;;4873078;29;20403;-84
2021/03/04 06:44:45;;;;;;;3.70;1.45;;;25.80;64.60;;;;;;4865557;29;20491;-83
2021/03/04 06:47:21;;;;;;;3.15;1.33;;;25.80;65.70;;;;;;4867131;29;20386;-83
2021/03/04 06:49:49;;;;;;;2.78;1.05;;;25.70;65.00;;;;;;4867666;29;20411;-82
2021/03/04 06:52:26;;;;;;;4.13;1.20;;;25.80;64.80;;;;;;4875722;29;20383;-82
2021/03/04 06:54:54;;;;;;;4.03;1.27;;;25.70;66.50;;;;;;4876627;29;20445;-83
2021/03/04 06:57:22;;;;;;;2.88;1.50;;;25.60;65.90;;;;;;4875639;29;20403;-83
2021/03/04 06:59:49;;;;;;;2.55;1.38;;;25.60;66.20;;;;;;4868077;29;20407;-84
2021/03/04 07:02:30;;;;;;;3.08;1.45;;;25.50;66.90;;;;;;4874492;29;20407;-83
2021/03/04 07:05:03;;;;;;;2.78;1.40;;;25.40;66.80;;;;;;4875594;29;20395;-82
2021/03/04 07:07:30;;;;;;;4.90;1.08;;;25.30;66.50;;;;;;4877225;29;20415;-83
2021/03/04 07:09:59;;;;;;;4.10;1.37;;;25.60;66.50;;;;;;4876751;29;20494;-84
2021/03/04 07:12:26;;;;;;;7.82;4.82;;;25.90;65.00;;;;;;4876950;29;20459;-84
2021/03/04 07:14:54;;;;;;;6.30;2.28;;;26.10;65.40;;;;;;4876444;29;20414;-83
2021/03/04 07:17:23;;;;;;;6.32;2.20;;;26.10;69.60;;;;;;4876482;29;20410;-83
2021/03/04 07:19:56;;;;;;;18.90;11.57;;;25.80;75.80;;;;;;4876521;29;20477;-84
2021/03/04 07:22:26;;;;;;;8.23;3.50;;;25.30;78.10;;;;;;4876938;29;20550;-84
2021/03/04 07:24:54;;;;;;;6.97;1.83;;;25.00;79.70;;;;;;4875964;29;20962;-84
2021/03/04 07:27:21;;;;;;;7.45;1.88;;;24.80;81.30;;;;;;4875784;29;20778;-83
2021/03/04 07:29:48;;;;;;;5.70;1.75;;;24.60;82.10;;;;;;4876090;29;20864;-82
2021/03/04 07:32:23;;;;;;;27.73;19.52;;;24.40;83.60;;;;;;4878079;29;20415;-82
2021/03/04 07:34:51;;;;;;;11.10;2.58;;;24.20;84.90;;;;;;4876036;29;20441;-83
2021/03/04 07:37:19;;;;;;;7.10;1.70;;;24.00;86.20;;;;;;4875886;29;20411;-83
2021/03/04 07:39:49;;;;;;;7.32;2.03;;;23.90;87.50;;;;;;4875847;29;20446;-83
2021/03/04 07:42:22;;;;;;;5.88;2.00;;;23.80;88.20;;;;;;4877378;29;21531;-84
2021/03/04 07:44:49;;;;;;;7.07;2.35;;;23.70;89.00;;;;;;4877606;29;20399;-84
2021/03/04 07:47:28;;;;;;;101.97;49.92;;;23.60;89.30;;;;;;4874777;29;20495;-82
2021/03/04 07:49:56;;;;;;;9.17;2.73;;;23.50;89.50;;;;;;4873522;29;20417;-82
2021/03/04 07:52:24;;;;;;;6.78;2.22;;;23.40;90.30;;;;;;4875698;29;20840;-84
2021/03/04 07:54:54;;;;;;;5.18;1.80;;;23.40;90.70;;;;;;4875904;29;20830;-84
2021/03/04 07:57:27;;;;;;;6.95;1.77;;;23.30;91.10;;;;;;4875331;29;20468;-83
2021/03/04 07:59:58;;;;;;;9.02;2.03;;;23.20;91.30;;;;;;4874258;29;20423;-83
2021/03/04 08:02:37;;;;;;;6.35;1.80;;;23.10;91.50;;;;;;4876317;29;20397;-84
2021/03/04 08:05:18;;;;;;;7.68;1.70;;;23.00;92.00;;;;;;4876110;29;20414;-85
2021/03/04 08:07:47;;;;;;;11.07;2.05;;;22.90;92.50;;;;;;4863251;29;20425;-82
2021/03/04 08:10:19;;;;;;;8.93;2.88;;;22.80;93.20;;;;;;4874358;29;20423;-85
2021/03/04 08:12:58;;;;;;;8.27;2.15;;;22.70;93.80;;;;;;4874671;29;20423;-84
2021/03/04 08:15:43;;;;;;;7.20;2.10;;;22.60;94.10;;;;;;4875990;29;21012;-85
2021/03/04 08:18:24;;;;;;;8.30;2.10;;;22.60;94.50;;;;;;4875329;29;20423;-84
2021/03/04 08:20:54;;;;;;;6.25;1.90;;;22.50;95.00;;;;;;4876761;29;20429;-87
2021/03/04 08:23:21;;;;;;;9.97;2.50;;;22.40;95.30;;;;;;4874564;29;20447;-85
2021/03/04 08:25:49;;;;;;;9.50;2.17;;;22.30;95.70;;;;;;4876117;29;20406;-86
2021/03/04 08:28:29;;;;;;;7.73;2.27;;;22.30;96.00;;;;;;4876116;29;20475;-86
2021/03/04 08:31:05;;;;;;;10.82;2.58;;;22.20;96.30;;;;;;4877799;29;20407;-89
2021/03/04 08:33:32;;;;;;;9.95;3.22;;;22.10;96.70;;;;;;4883361;29;20495;-84
2021/03/04 08:36:01;;;;;;;7.95;2.17;;;22.00;96.70;;;;;;4878085;29;20399;-87
2021/03/04 08:38:37;;;;;;;9.68;3.10;;;22.00;97.00;;;;;;4876221;29;20415;-86
2021/03/04 08:41:04;;;;;;;8.40;2.53;;;21.90;97.30;;;;;;4875797;29;20415;-85
2021/03/04 08:43:31;;;;;;;7.40;2.65;;;21.90;97.40;;;;;;4874574;29;20403;-85
2021/03/04 08:46:01;;;;;;;9.80;2.67;;;21.80;97.70;;;;;;4863254;29;20387;-83
2021/03/04 08:48:28;;;;;;;9.60;2.88;;;21.70;98.10;;;;;;4875433;29;20395;-83
2021/03/04 08:51:05;;;;;;;8.47;3.27;;;21.70;98.30;;;;;;4875518;29;20409;-83
2021/03/04 08:53:36;;;;;;;9.00;3.10;;;21.60;98.50;;;;;;4874859;29;20410;-83
2021/03/04 08:56:08;;;;;;;10.07;3.10;;;21.60;98.80;;;;;;4875759;29;20428;-82
2021/03/04 08:58:42;;;;;;;9.27;2.60;;;21.60;99.00;;;;;;4873398;29;20441;-82
2021/03/04 09:01:10;;;;;;;7.72;2.38;;;21.50;99.40;;;;;;4874906;29;20453;-82
2021/03/04 09:03:42;;;;;;;11.57;2.17;;;21.50;99.70;;;;;;4874637;29;20478;-82
2021/03/04 09:06:17;;;;;;;9.23;2.33;;;21.40;99.90;;;;;;4874537;29;20462;-83
2021/03/04 09:08:48;;;;;;;7.45;2.25;;;21.30;99.90;;;;;;4875422;29;20454;-81
2021/03/04 09:11:34;;;;;;;6.10;1.90;;;21.30;99.90;;;;;;4873699;29;20874;-81
2021/03/04 09:14:11;;;;;;;7.85;2.28;;;21.20;99.90;;;;;;4874576;29;20403;-83
2021/03/04 09:16:51;;;;;;;8.67;2.23;;;21.10;99.90;;;;;;4880646;29;20955;-83
2021/03/04 09:19:24;;;;;;;5.28;2.00;;;21.10;99.90;;;;;;4871293;29;21003;-82
2021/03/04 09:21:52;;;;;;;10.15;2.40;;;21.10;99.90;;;;;;4877202;29;20664;-83
2021/03/04 09:24:19;;;;;;;8.80;2.10;;;21.10;99.90;;;;;;4883117;29;20416;-82
2021/03/04 09:26:46;;;;;;;13.40;2.47;;;21.00;99.90;;;;;;4889085;29;20881;-83
2021/03/04 09:29:14;;;;;;;9.10;2.40;;;21.00;99.90;;;;;;4866954;29;20413;-83
2021/03/04 09:31:54;;;;;;;9.80;1.85;;;20.90;99.90;;;;;;4881246;29;20470;-83
2021/03/04 09:34:40;;;;;;;10.40;2.05;;;20.80;99.90;;;;;;4872227;29;20427;-82
2021/03/04 09:37:07;;;;;;;9.55;1.80;;;20.80;99.90;;;;;;4882773;29;20518;-82
2021/03/04 09:39:46;;;;;;;11.38;1.98;;;20.70;99.90;;;;;;4874216;29;20414;-83
2021/03/04 09:42:33;;;;;;;10.07;2.13;;;20.70;99.90;;;;;;4872521;29;20411;-83
2021/03/04 09:45:20;;;;;;;8.00;2.13;;;20.70;99.90;;;;;;4871634;29;20919;-82
2021/03/04 09:47:49;;;;;;;10.52;2.80;;;20.60;99.90;;;;;;4875320;29;20784;-83
2021/03/04 09:50:24;;;;;;;7.25;2.22;;;20.50;99.90;;;;;;4869644;29;20406;-82
2021/03/04 09:53:08;;;;;;;6.63;2.15;;;20.40;99.90;;;;;;4872646;29;20507;-82
2021/03/04 09:55:52;;;;;;;8.25;2.17;;;20.40;99.90;;;;;;4857085;29;20411;-82
2021/03/04 09:58:23;;;;;;;9.77;2.30;;;20.30;99.90;;;;;;4882308;29;20446;-82
2021/03/04 10:00:58;;;;;;;9.63;2.10;;;20.30;99.90;;;;;;4873701;29;20419;-82
2021/03/04 10:03:39;;;;;;;6.53;2.10;;;20.30;99.90;;;;;;4880169;29;20906;-82
2021/03/04 10:06:06;;;;;;;7.75;2.38;;;20.20;99.90;;;;;;4867305;29;20426;-83
2021/03/04 10:08:43;;;;;;;7.32;2.33;;;20.30;99.90;;;;;;4871974;29;20481;-83
2021/03/04 10:11:22;;;;;;;9.43;2.27;;;20.20;99.90;;;;;;4872065;29;20414;-83
2021/03/04 10:13:49;;;;;;;8.68;1.92;;;20.20;99.90;;;;;;4871935;29;20405;-82
2021/03/04 10:16:17;;;;;;;6.57;1.98;;;20.20;99.90;;;;;;4883679;29;20401;-82
2021/03/04 10:18:50;;;;;;;8.73;2.05;;;20.20;99.90;;;;;;4888529;29;20833;-82
2021/03/04 10:21:18;;;;;;;6.82;1.95;;;20.10;99.90;;;;;;4877188;29;20420;-83
2021/03/04 10:23:49;;;;;;;7.40;1.40;;;20.10;99.90;;;;;;4879643;29;20418;-82
2021/03/04 10:26:16;;;;;;;8.40;2.22;;;20.10;99.90;;;;;;4878867;29;20414;-83
2021/03/04 10:28:43;;;;;;;8.75;2.05;;;20.10;99.90;;;;;;4875444;29;20456;-82
2021/03/04 10:31:10;;;;;;;9.85;2.13;;;20.10;99.90;;;;;;4873288;29;20503;-82
2021/03/04 10:33:37;;;;;;;6.13;2.17;;;20.00;99.90;;;;;;4874251;29;20411;-82
2021/03/04 10:36:05;;;;;;;7.93;2.17;;;20.00;99.90;;;;;;4875988;29;20462;-83
2021/03/04 10:38:32;;;;;;;7.00;2.03;;;20.00;99.90;;;;;;4874529;29;20429;-83
2021/03/04 10:40:59;;;;;;;8.88;2.30;;;20.00;99.90;;;;;;4872188;29;20439;-83
2021/03/04 10:43:26;;;;;;;5.75;1.92;;;20.00;99.90;;;;;;4874381;29;20886;-83
2021/03/04 10:45:53;;;;;;;8.83;1.97;;;19.90;99.90;;;;;;4874631;29;20835;-84
2021/03/04 10:48:21;;;;;;;8.13;2.10;;;19.80;99.90;;;;;;4876526;29;21056;-82
2021/03/04 10:50:48;;;;;;;9.35;2.13;;;19.70;99.90;;;;;;4873294;29;20482;-83
2021/03/04 10:53:15;;;;;;;5.53;2.25;;;19.70;99.90;;;;;;4875823;29;20415;-82
2021/03/04 10:55:43;;;;;;;9.77;2.40;;;19.70;99.90;;;;;;4878191;29;20410;-83
2021/03/04 10:58:10;;;;;;;8.00;2.10;;;19.70;99.90;;;;;;4877167;29;20779;-85
2021/03/04 11:00:40;;;;;;;8.00;2.08;;;19.60;99.90;;;;;;4875834;29;20455;-82
2021/03/04 11:03:07;;;;;;;9.48;2.08;;;19.50;99.90;;;;;;4876135;29;20410;-82
2021/03/04 11:05:34;;;;;;;6.57;1.98;;;19.50;99.90;;;;;;4876536;29;20406;-83
2021/03/04 11:08:01;;;;;;;8.48;2.10;;;19.60;99.90;;;;;;4877577;29;20395;-83
2021/03/04 11:10:28;;;;;;;6.25;1.75;;;19.60;99.90;;;;;;4878006;29;20405;-82
2021/03/04 11:12:55;;;;;;;7.60;1.80;;;19.70;99.90;;;;;;4879980;29;20387;-83
2021/03/04 11:15:22;;;;;;;8.27;1.88;;;19.60;99.90;;;;;;4877642;29;20383;-83
2021/03/04 11:17:50;;;;;;;9.13;2.00;;;19.60;99.90;;;;;;4876687;29;20425;-82
2021/03/04 11:20:17;;;;;;;7.32;2.08;;;19.60;99.90;;;;;;4874662;29;20407;-83
2021/03/04 11:22:44;;;;;;;6.47;2.17;;;19.50;99.90;;;;;;4861289;29;20937;-82
2021/03/04 11:25:11;;;;;;;5.72;1.55;;;19.60;99.90;;;;;;4876583;29;20882;-83
2021/03/04 11:27:38;;;;;;;6.13;1.42;;;19.60;99.90;;;;;;4876690;29;20414;-82
2021/03/04 11:30:07;;;;;;;5.90;1.48;;;19.50;99.90;;;;;;4876753;29;20383;-82
2021/03/04 11:32:34;;;;;;;8.57;1.75;;;19.50;99.90;;;;;;4874137;29;20406;-81
2021/03/04 11:35:01;;;;;;;9.23;2.00;;;19.50;99.90;;;;;;4874147;29;20419;-83
2021/03/04 11:37:28;;;;;;;7.63;1.80;;;19.50;99.90;;;;;;4873094;29;20532;-83
2021/03/04 11:39:55;;;;;;;5.93;1.67;;;19.50;99.90;;;;;;4874657;29;20441;-83
2021/03/04 11:42:22;;;;;;;7.17;1.80;;;19.50;99.90;;;;;;4874466;29;20415;-83
2021/03/04 11:44:49;;;;;;;9.13;1.60;;;19.50;99.90;;;;;;4875477;29;20997;-83
2021/03/04 11:47:16;;;;;;;6.47;1.60;;;19.40;99.90;;;;;;4874562;29;20415;-83
2021/03/04 11:49:43;;;;;;;6.93;1.83;;;19.40;99.90;;;;;;4874921;29;20418;-83
2021/03/04 11:52:10;;;;;;;5.93;1.60;;;19.40;99.90;;;;;;4873555;29;20419;-83
2021/03/04 11:54:37;;;;;;;9.52;1.92;;;19.40;99.90;;;;;;4874891;29;20426;-83
2021/03/04 11:57:04;;;;;;;6.38;1.70;;;19.40;99.90;;;;;;4876428;29;20387;-83
2021/03/04 11:59:31;;;;;;;6.70;1.60;;;19.30;99.90;;;;;;4874422;29;20431;-82
2021/03/04 12:01:59;;;;;;;4.25;1.50;;;19.30;99.90;;;;;;4875238;29;20490;-82
2021/03/04 12:04:26;;;;;;;7.65;1.65;;;19.30;99.90;;;;;;4873893;29;20419;-84
2021/03/04 12:06:53;;;;;;;5.95;1.60;;;19.30;99.90;;;;;;4875005;29;20434;-84
2021/03/04 12:09:20;;;;;;;6.95;1.60;;;19.30;99.90;;;;;;4874877;29;20425;-84
2021/03/04 12:11:48;;;;;;;6.75;1.63;;;19.30;99.90;;;;;;4873346;29;20418;-84
2021/03/04 12:14:16;;;;;;;9.47;2.00;;;19.30;99.90;;;;;;4870483;29;20437;-84
2021/03/04 12:16:43;;;;;;;7.67;1.80;;;19.30;99.90;;;;;;4871338;29;20399;-84
2021/03/04 12:19:11;;;;;;;8.07;1.75;;;19.30;99.90;;;;;;4870359;29;20486;-84
2021/03/04 12:21:38;;;;;;;5.20;1.58;;;19.20;99.90;;;;;;4870442;29;20486;-84
2021/03/04 12:24:05;;;;;;;10.47;1.83;;;19.20;99.90;;;;;;4871448;29;20502;-83
2021/03/04 12:26:32;;;;;;;5.15;1.52;;;19.20;99.90;;;;;;4883230;29;20909;-83
2021/03/04 12:28:59;;;;;;;7.28;2.00;;;19.20;99.90;;;;;;4872298;29;20407;-83
2021/03/04 12:31:26;;;;;;;8.48;1.70;;;19.20;99.90;;;;;;4872028;29;20497;-83
2021/03/04 12:33:53;;;;;;;9.13;1.73;;;19.20;99.90;;;;;;4880890;29;20401;-84
2021/03/04 12:36:20;;;;;;;9.65;1.98;;;19.20;99.90;;;;;;4877760;29;20410;-83
2021/03/04 12:38:47;;;;;;;8.50;2.10;;;19.20;99.90;;;;;;4874880;29;20427;-83
2021/03/04 12:41:14;;;;;;;8.17;1.67;;;19.20;99.90;;;;;;4880588;29;20883;-82
2021/03/04 12:43:41;;;;;;;8.17;1.93;;;19.10;99.90;;;;;;4874443;29;20475;-83
2021/03/04 12:46:08;;;;;;;8.57;2.20;;;19.20;99.90;;;;;;4875559;29;20859;-83
2021/03/04 12:48:35;;;;;;;5.53;1.50;;;19.10;99.90;;;;;;4875648;29;20914;-84
2021/03/04 12:51:02;;;;;;;10.93;2.10;;;19.20;99.90;;;;;;4883954;29;20397;-84
2021/03/04 12:53:29;;;;;;;7.03;1.75;;;19.10;99.90;;;;;;4888087;29;20411;-84
2021/03/04 12:55:56;;;;;;;6.97;1.73;;;19.10;99.90;;;;;;4884025;29;20405;-83
2021/03/04 12:58:23;;;;;;;10.05;1.85;;;19.10;99.90;;;;;;4882123;29;20421;-83